createdAt,value
2018-04-28T00:01:54.776Z,13.30
2018-04-28T00:04:22.263Z,13.40
2018-04-28T00:06:49.732Z,13.30
2018-04-28T00:09:17.309Z,13.20
2018-04-28T00:11:44.860Z,13.20
2018-04-28T00:14:12.392Z,13.20
2018-04-28T00:16:49.749Z,13.20
2018-04-28T00:19:17.221Z,13.10
2018-04-28T00:21:58.100Z,13.10
2018-04-28T00:24:26.385Z,13.00
2018-04-28T00:27:02.785Z,13.00
2018-04-28T00:29:31.461Z,12.90
2018-04-28T00:32:00.873Z,12.90
2018-04-28T00:34:33.787Z,12.90
2018-04-28T00:37:02.890Z,12.90
2018-04-28T00:42:34.681Z,12.80
2018-04-28T00:45:12.872Z,12.80
2018-04-28T00:47:41.138Z,12.80
2018-04-28T00:50:14.012Z,12.80
2018-04-28T00:52:41.518Z,12.80
2018-04-28T00:55:13.904Z,12.80
2018-04-28T00:57:59.857Z,12.70
2018-04-28T01:03:29.478Z,12.70
2018-04-28T01:05:56.929Z,12.70
2018-04-28T01:08:29.712Z,12.70
2018-04-28T01:11:11.596Z,12.70
2018-04-28T01:13:40.846Z,12.70
2018-04-28T01:16:09.192Z,12.70
2018-04-28T01:21:37.901Z,12.70
2018-04-28T01:27:18.905Z,12.80
2018-04-28T01:30:11.081Z,12.80
2018-04-28T01:35:40.948Z,12.70
2018-04-28T01:38:08.467Z,12.70
2018-04-28T01:40:39.064Z,12.70
2018-04-28T01:43:15.076Z,12.60
2018-04-28T01:48:52.375Z,12.60
2018-04-28T01:51:36.715Z,12.60
2018-04-28T01:57:13.853Z,12.50
2018-04-28T01:59:50.045Z,12.50
2018-04-28T02:02:19.216Z,12.40
2018-04-28T02:05:00.390Z,12.20
2018-04-28T02:07:29.531Z,12.20
2018-04-28T02:09:57.213Z,12.10
2018-04-28T02:12:24.816Z,12.00
2018-04-28T02:14:58.248Z,12.00
2018-04-28T02:17:32.255Z,11.90
2018-04-28T02:20:01.218Z,11.90
2018-04-28T02:22:37.752Z,11.90
2018-04-28T02:25:15.959Z,11.80
2018-04-28T02:30:42.142Z,11.60
2018-04-28T02:33:09.706Z,11.60
2018-04-28T02:35:48.237Z,11.50
2018-04-28T02:38:27.326Z,11.50
2018-04-28T02:44:01.452Z,11.40
2018-04-28T02:46:39.299Z,11.30
2018-04-28T02:49:12.743Z,11.30
2018-04-28T02:51:46.173Z,11.30
2018-04-28T02:54:23.572Z,11.20
2018-04-28T02:56:52.035Z,11.20
2018-04-28T02:59:20.462Z,11.20
2018-04-28T03:01:53.872Z,11.10
2018-04-28T03:04:34.372Z,11.10
2018-04-28T03:10:33.624Z,11.00
2018-04-28T03:13:01.509Z,10.90
2018-04-28T03:15:30.336Z,10.80
2018-04-28T03:18:02.476Z,10.80
2018-04-28T03:20:31.948Z,10.80
2018-04-28T03:23:00.831Z,10.80
2018-04-28T03:25:34.287Z,10.70
2018-04-28T03:28:08.731Z,10.70
2018-04-28T03:30:37.143Z,10.70
2018-04-28T03:33:13.416Z,10.80
2018-04-28T03:35:45.168Z,10.80
2018-04-28T03:41:30.841Z,10.90
2018-04-28T03:44:01.936Z,10.90
2018-04-28T03:49:28.629Z,10.90
2018-04-28T03:51:57.279Z,11.00
2018-04-28T03:54:39.738Z,10.90
2018-04-28T03:57:27.796Z,10.90
2018-04-28T04:00:07.373Z,10.90
2018-04-28T04:05:13.220Z,10.70
2018-04-28T04:07:47.932Z,10.60
2018-04-28T04:17:09.481Z,10.50
2018-04-28T17:25:49.950Z,17.40
2018-04-28T17:28:17.397Z,17.30
2018-04-28T17:30:44.844Z,17.40
2018-04-28T17:33:13.084Z,17.30
2018-04-28T17:35:41.386Z,17.30
2018-04-28T17:38:09.018Z,17.30
2018-04-28T17:40:36.960Z,17.30
2018-04-28T17:43:05.620Z,17.30
2018-04-28T17:45:33.688Z,17.30
2018-04-28T17:52:14.555Z,17.30
2018-04-28T17:54:42.014Z,17.30
2018-04-28T17:57:10.610Z,17.20
2018-04-28T17:59:38.153Z,17.20
2018-04-28T18:02:05.743Z,17.20
2018-04-28T18:04:33.863Z,17.20
2018-04-28T18:07:03.910Z,17.10
2018-04-28T18:09:31.827Z,17.10
2018-04-28T18:11:59.820Z,17.10
2018-04-28T18:14:27.561Z,17.10
2018-04-28T18:16:57.059Z,17.10
2018-04-28T18:19:25.700Z,17.10
2018-04-28T18:21:53.223Z,17.00
2018-04-28T18:24:20.673Z,17.00
2018-04-28T18:26:48.205Z,16.90
2018-04-28T18:29:15.716Z,16.90
2018-04-28T18:31:43.220Z,16.90
2018-04-28T18:34:11.433Z,16.80
2018-04-28T18:36:39.167Z,16.70
2018-04-28T18:39:07.430Z,16.70
2018-04-28T18:41:36.413Z,16.70
2018-04-28T18:44:03.956Z,16.70
2018-04-28T18:46:32.358Z,16.70
2018-04-28T18:49:01.264Z,16.70
2018-04-28T18:51:29.328Z,16.70
2018-04-28T18:53:57.087Z,16.70
2018-04-28T18:56:25.014Z,16.70
2018-04-28T18:58:52.520Z,16.60
2018-04-28T19:01:20.304Z,16.50
2018-04-28T19:03:47.751Z,16.50
2018-04-28T19:06:15.273Z,16.40
2018-04-28T19:08:43.501Z,16.20
2018-04-28T19:11:10.968Z,16.20
2018-04-28T19:13:38.468Z,16.20
2018-04-28T19:16:05.956Z,16.00
2018-04-28T19:18:33.424Z,16.00
2018-04-28T19:21:01.675Z,16.00
2018-04-28T19:23:29.198Z,16.00
2018-04-28T19:25:57.430Z,15.90
2018-04-28T19:28:24.888Z,15.90
2018-04-28T19:30:52.383Z,15.90
2018-04-28T19:33:19.924Z,15.80
2018-04-28T19:35:47.447Z,15.80
2018-04-28T19:38:15.076Z,15.70
2018-04-28T19:40:43.166Z,15.70
2018-04-28T19:43:11.163Z,15.60
2018-04-28T19:45:39.567Z,15.50
2018-04-28T19:48:07.036Z,15.50
2018-04-28T19:50:34.611Z,15.40
2018-04-28T19:53:02.248Z,15.50
2018-04-28T19:55:30.123Z,15.40
2018-04-28T19:57:57.560Z,15.40
2018-04-28T20:00:25.039Z,15.40
2018-04-28T20:02:52.532Z,15.30
2018-04-28T20:05:20.533Z,15.30
2018-04-28T20:07:48.141Z,15.30
2018-04-28T20:10:15.691Z,15.30
2018-04-28T20:12:43.561Z,15.30
2018-04-28T20:15:13.108Z,15.30
2018-04-28T20:17:42.739Z,15.30
2018-04-28T20:20:11.045Z,15.30
2018-04-28T20:22:50.495Z,15.30
2018-04-28T20:25:23.249Z,15.30
2018-04-28T20:27:51.683Z,15.30
2018-04-28T20:30:19.490Z,15.30
2018-04-28T20:32:47.079Z,15.20
2018-04-28T20:35:14.867Z,15.20
2018-04-28T20:37:42.929Z,15.10
2018-04-28T20:40:10.800Z,15.10
2018-04-28T20:42:39.005Z,15.10
2018-04-28T20:45:06.500Z,15.10
2018-04-28T20:47:33.947Z,15.00
2018-04-28T20:50:01.420Z,15.00
2018-04-28T20:52:28.864Z,15.00
2018-04-28T20:54:56.377Z,15.00
2018-04-28T20:57:25.884Z,15.00
2018-04-28T20:59:53.416Z,15.00
2018-04-28T21:02:21.048Z,15.00
2018-04-28T21:04:49.305Z,15.00
2018-04-28T21:07:17.196Z,15.00
2018-04-28T21:09:45.768Z,15.00
2018-04-28T21:12:14.366Z,15.00
2018-04-28T21:14:43.911Z,15.00
2018-04-28T21:17:11.929Z,15.00
2018-04-28T21:19:41.338Z,15.00
2018-04-28T21:22:09.045Z,14.90
2018-04-28T21:24:37.730Z,14.80
2018-04-28T21:27:05.141Z,14.80
2018-04-28T21:29:32.585Z,14.70
2018-04-28T21:32:00.064Z,14.70
2018-04-28T21:34:27.572Z,14.70
2018-04-28T21:36:55.049Z,14.60
2018-04-28T21:39:22.552Z,14.60
2018-04-28T21:41:50.826Z,14.50
2018-04-28T21:44:18.649Z,14.40
2018-04-28T21:46:46.339Z,14.40
2018-04-28T21:49:14.395Z,14.40
2018-04-28T21:51:43.040Z,14.40
2018-04-28T21:54:12.053Z,14.10
2018-04-28T21:56:41.165Z,14.00
2018-04-28T21:59:11.915Z,13.90
2018-04-28T22:01:41.219Z,13.80
2018-04-28T22:04:09.866Z,13.70
2018-04-28T22:06:37.361Z,13.60
2018-04-28T22:09:04.809Z,13.40
2018-04-28T22:11:32.269Z,13.30
2018-04-28T22:13:59.727Z,13.10
2018-04-28T22:16:27.961Z,12.90
2018-04-28T22:18:55.444Z,12.90
2018-04-28T22:21:22.905Z,12.80
2018-04-28T22:23:50.728Z,12.70
2018-04-28T22:26:18.590Z,12.70
2018-04-28T22:28:46.313Z,12.60
2018-04-28T22:31:14.392Z,12.60
2018-04-28T22:33:43.529Z,12.50
2018-04-28T22:36:11.938Z,12.50
2018-04-28T22:38:42.441Z,12.40
2018-04-28T22:41:11.695Z,12.30
2018-04-28T22:43:39.937Z,12.20
2018-04-28T22:46:08.458Z,12.00
2018-04-28T22:48:35.968Z,12.00
2018-04-28T22:51:03.448Z,12.00
2018-04-28T22:53:31.028Z,11.90
2018-04-28T22:55:58.487Z,11.80
2018-04-28T22:58:25.938Z,11.80
2018-04-28T23:00:53.416Z,11.70
2018-04-28T23:03:21.195Z,11.70
2018-04-28T23:05:49.005Z,11.60
2018-04-28T23:08:17.542Z,11.60
2018-04-28T23:10:46.331Z,11.50
2018-04-28T23:13:14.839Z,11.40
2018-04-28T23:15:43.740Z,11.40
2018-04-28T23:18:13.947Z,11.40
2018-04-28T23:20:44.176Z,11.30
2018-04-28T23:23:13.980Z,11.30
2018-04-28T23:25:42.873Z,11.30
2018-04-28T23:28:11.650Z,11.30
2018-04-28T23:30:41.323Z,11.20
2018-04-28T23:33:11.021Z,11.20
2018-04-28T23:35:39.097Z,11.20
2018-04-28T23:38:06.876Z,11.20
2018-04-28T23:40:34.386Z,11.20
2018-04-28T23:43:01.801Z,11.20
2018-04-28T23:45:29.271Z,11.20
2018-04-28T23:47:56.737Z,11.20
2018-04-28T23:50:24.205Z,11.20
2018-04-28T23:52:51.937Z,11.10
2018-04-28T23:55:19.803Z,11.10
2018-04-28T23:57:47.410Z,11.10
